sensor_id;sensor_type;location;lat;lon;timestamp;P1;durP1;ratioP1;P2;durP2;ratioP2
20525;SDS011;10421;49.142;9.232;2022-12-10T00:02:03;31.33;;;14.33;;
20525;SDS011;10421;49.142;9.232;2022-12-10T00:04:30;29.37;;;14.70;;
20525;SDS011;10421;49.142;9.232;2022-12-10T00:06:58;30.00;;;14.77;;
20525;SDS011;10421;49.142;9.232;2022-12-10T00:09:25;26.40;;;14.13;;
20525;SDS011;10421;49.142;9.232;2022-12-10T00:11:52;30.70;;;15.00;;
20525;SDS011;10421;49.142;9.232;2022-12-10T00:14:18;33.47;;;15.73;;
20525;SDS011;10421;49.142;9.232;2022-12-10T00:16:45;29.17;;;15.70;;
20525;SDS011;10421;49.142;9.232;2022-12-10T00:19:12;34.80;;;15.57;;
20525;SDS011;10421;49.142;9.232;2022-12-10T00:21:39;32.10;;;15.10;;
20525;SDS011;10421;49.142;9.232;2022-12-10T00:24:07;34.13;;;16.67;;
20525;SDS011;10421;49.142;9.232;2022-12-10T00:26:36;30.60;;;14.30;;
20525;SDS011;10421;49.142;9.232;2022-12-10T00:29:05;36.33;;;15.53;;
20525;SDS011;10421;49.142;9.232;2022-12-10T00:31:33;28.70;;;14.57;;
20525;SDS011;10421;49.142;9.232;2022-12-10T00:34:02;27.03;;;13.37;;
20525;SDS011;10421;49.142;9.232;2022-12-10T00:36:31;26.57;;;13.73;;
20525;SDS011;10421;49.142;9.232;2022-12-10T00:38:59;25.17;;;13.80;;
20525;SDS011;10421;49.142;9.232;2022-12-10T00:41:27;32.97;;;14.20;;
20525;SDS011;10421;49.142;9.232;2022-12-10T00:43:54;25.00;;;12.57;;
20525;SDS011;10421;49.142;9.232;2022-12-10T00:46:21;26.97;;;14.20;;
20525;SDS011;10421;49.142;9.232;2022-12-10T00:48:48;28.60;;;13.40;;
20525;SDS011;10421;49.142;9.232;2022-12-10T00:51:16;26.50;;;13.67;;
20525;SDS011;10421;49.142;9.232;2022-12-10T00:53:45;26.57;;;13.17;;
20525;SDS011;10421;49.142;9.232;2022-12-10T00:56:14;24.50;;;13.07;;
20525;SDS011;10421;49.142;9.232;2022-12-10T00:58:44;28.10;;;13.50;;
20525;SDS011;10421;49.142;9.232;2022-12-10T01:01:14;27.97;;;13.13;;
20525;SDS011;10421;49.142;9.232;2022-12-10T01:03:43;27.80;;;13.17;;
20525;SDS011;10421;49.142;9.232;2022-12-10T01:06:11;26.03;;;13.77;;
20525;SDS011;10421;49.142;9.232;2022-12-10T01:08:40;29.53;;;15.10;;
20525;SDS011;10421;49.142;9.232;2022-12-10T01:11:07;26.57;;;13.70;;
20525;SDS011;10421;49.142;9.232;2022-12-10T01:13:35;29.20;;;13.90;;
20525;SDS011;10421;49.142;9.232;2022-12-10T01:16:04;25.03;;;12.50;;
20525;SDS011;10421;49.142;9.232;2022-12-10T01:18:33;27.60;;;13.80;;
20525;SDS011;10421;49.142;9.232;2022-12-10T01:21:01;24.60;;;13.00;;
20525;SDS011;10421;49.142;9.232;2022-12-10T01:23:30;25.33;;;14.50;;
20525;SDS011;10421;49.142;9.232;2022-12-10T01:25:58;29.83;;;13.20;;
20525;SDS011;10421;49.142;9.232;2022-12-10T01:28:27;44.80;;;16.07;;
20525;SDS011;10421;49.142;9.232;2022-12-10T01:30:59;27.70;;;13.57;;
20525;SDS011;10421;49.142;9.232;2022-12-10T01:33:29;26.53;;;13.80;;
20525;SDS011;10421;49.142;9.232;2022-12-10T01:35:56;28.20;;;13.50;;
20525;SDS011;10421;49.142;9.232;2022-12-10T01:38:26;26.00;;;13.70;;
20525;SDS011;10421;49.142;9.232;2022-12-10T01:40:53;25.50;;;12.77;;
20525;SDS011;10421;49.142;9.232;2022-12-10T01:43:20;27.03;;;13.80;;
20525;SDS011;10421;49.142;9.232;2022-12-10T01:45:47;29.17;;;13.00;;
20525;SDS011;10421;49.142;9.232;2022-12-10T01:48:14;29.27;;;14.30;;
20525;SDS011;10421;49.142;9.232;2022-12-10T01:50:42;30.97;;;13.50;;
20525;SDS011;10421;49.142;9.232;2022-12-10T01:53:09;24.83;;;12.37;;
20525;SDS011;10421;49.142;9.232;2022-12-10T01:55:41;26.90;;;13.53;;
20525;SDS011;10421;49.142;9.232;2022-12-10T01:58:10;23.07;;;12.80;;
20525;SDS011;10421;49.142;9.232;2022-12-10T02:00:41;26.87;;;13.40;;
20525;SDS011;10421;49.142;9.232;2022-12-10T02:03:13;22.97;;;12.50;;
20525;SDS011;10421;49.142;9.232;2022-12-10T02:05:47;26.73;;;13.30;;
20525;SDS011;10421;49.142;9.232;2022-12-10T02:08:19;29.23;;;14.37;;
20525;SDS011;10421;49.142;9.232;2022-12-10T02:10:57;27.40;;;14.80;;
20525;SDS011;10421;49.142;9.232;2022-12-10T02:13:30;26.30;;;14.20;;
20525;SDS011;10421;49.142;9.232;2022-12-10T02:16:03;27.73;;;13.67;;
20525;SDS011;10421;49.142;9.232;2022-12-10T02:18:35;29.77;;;14.07;;
20525;SDS011;10421;49.142;9.232;2022-12-10T02:21:08;31.03;;;14.60;;
20525;SDS011;10421;49.142;9.232;2022-12-10T02:23:41;25.03;;;12.97;;
20525;SDS011;10421;49.142;9.232;2022-12-10T02:26:14;35.00;;;14.27;;
20525;SDS011;10421;49.142;9.232;2022-12-10T02:28:47;25.90;;;13.60;;
20525;SDS011;10421;49.142;9.232;2022-12-10T02:31:21;29.87;;;13.73;;
20525;SDS011;10421;49.142;9.232;2022-12-10T02:33:51;27.97;;;13.30;;
20525;SDS011;10421;49.142;9.232;2022-12-10T02:36:22;25.53;;;12.63;;
20525;SDS011;10421;49.142;9.232;2022-12-10T02:38:51;25.43;;;12.57;;
20525;SDS011;10421;49.142;9.232;2022-12-10T02:41:22;29.57;;;14.50;;
20525;SDS011;10421;49.142;9.232;2022-12-10T02:43:53;22.63;;;12.20;;
20525;SDS011;10421;49.142;9.232;2022-12-10T02:46:24;28.60;;;13.17;;
20525;SDS011;10421;49.142;9.232;2022-12-10T02:48:54;27.37;;;13.50;;
20525;SDS011;10421;49.142;9.232;2022-12-10T02:51:22;27.97;;;14.00;;
20525;SDS011;10421;49.142;9.232;2022-12-10T02:53:58;25.13;;;13.80;;
20525;SDS011;10421;49.142;9.232;2022-12-10T02:56:27;27.10;;;13.47;;
20525;SDS011;10421;49.142;9.232;2022-12-10T02:59:03;34.03;;;14.77;;
20525;SDS011;10421;49.142;9.232;2022-12-10T03:01:40;28.60;;;14.70;;
20525;SDS011;10421;49.142;9.232;2022-12-10T03:04:16;24.73;;;12.50;;
20525;SDS011;10421;49.142;9.232;2022-12-10T03:06:50;28.90;;;13.27;;
20525;SDS011;10421;49.142;9.232;2022-12-10T03:09:20;30.23;;;13.30;;
20525;SDS011;10421;49.142;9.232;2022-12-10T03:11:49;25.03;;;12.23;;
20525;SDS011;10421;49.142;9.232;2022-12-10T03:14:25;23.43;;;13.00;;
20525;SDS011;10421;49.142;9.232;2022-12-10T03:16:57;25.17;;;13.07;;
20525;SDS011;10421;49.142;9.232;2022-12-10T03:19:28;26.93;;;13.97;;
20525;SDS011;10421;49.142;9.232;2022-12-10T03:21:58;28.00;;;13.30;;
20525;SDS011;10421;49.142;9.232;2022-12-10T03:24:27;24.57;;;12.47;;
20525;SDS011;10421;49.142;9.232;2022-12-10T03:26:54;25.50;;;12.93;;
20525;SDS011;10421;49.142;9.232;2022-12-10T03:29:23;26.73;;;13.37;;
20525;SDS011;10421;49.142;9.232;2022-12-10T03:31:53;32.93;;;13.90;;
20525;SDS011;10421;49.142;9.232;2022-12-10T03:34:22;27.00;;;13.50;;
20525;SDS011;10421;49.142;9.232;2022-12-10T03:36:49;24.97;;;12.73;;
20525;SDS011;10421;49.142;9.232;2022-12-10T03:39:16;24.77;;;12.37;;
20525;SDS011;10421;49.142;9.232;2022-12-10T03:41:44;25.73;;;13.27;;
20525;SDS011;10421;49.142;9.232;2022-12-10T03:44:10;29.20;;;14.40;;
20525;SDS011;10421;49.142;9.232;2022-12-10T03:46:37;28.67;;;13.83;;
20525;SDS011;10421;49.142;9.232;2022-12-10T03:49:04;26.30;;;13.60;;
20525;SDS011;10421;49.142;9.232;2022-12-10T03:51:33;24.10;;;12.03;;
20525;SDS011;10421;49.142;9.232;2022-12-10T03:53:59;26.70;;;12.67;;
20525;SDS011;10421;49.142;9.232;2022-12-10T03:56:26;25.47;;;13.10;;
20525;SDS011;10421;49.142;9.232;2022-12-10T03:58:53;28.07;;;13.40;;
20525;SDS011;10421;49.142;9.232;2022-12-10T04:01:20;26.10;;;13.07;;
20525;SDS011;10421;49.142;9.232;2022-12-10T04:03:46;26.30;;;13.00;;
20525;SDS011;10421;49.142;9.232;2022-12-10T04:06:14;25.27;;;12.60;;
20525;SDS011;10421;49.142;9.232;2022-12-10T04:08:44;25.40;;;14.23;;
20525;SDS011;10421;49.142;9.232;2022-12-10T04:11:12;26.80;;;13.93;;
20525;SDS011;10421;49.142;9.232;2022-12-10T04:13:40;25.67;;;12.57;;
20525;SDS011;10421;49.142;9.232;2022-12-10T04:16:21;28.70;;;14.63;;
20525;SDS011;10421;49.142;9.232;2022-12-10T04:18:53;29.67;;;14.37;;
20525;SDS011;10421;49.142;9.232;2022-12-10T04:21:20;24.00;;;12.20;;
20525;SDS011;10421;49.142;9.232;2022-12-10T04:24:06;28.43;;;13.73;;
20525;SDS011;10421;49.142;9.232;2022-12-10T04:26:52;23.07;;;12.70;;
20525;SDS011;10421;49.142;9.232;2022-12-10T04:29:20;26.97;;;13.00;;
20525;SDS011;10421;49.142;9.232;2022-12-10T04:31:47;26.20;;;14.40;;
20525;SDS011;10421;49.142;9.232;2022-12-10T04:34:14;28.30;;;13.70;;
20525;SDS011;10421;49.142;9.232;2022-12-10T04:36:41;31.20;;;14.23;;
20525;SDS011;10421;49.142;9.232;2022-12-10T04:39:10;29.30;;;13.90;;
20525;SDS011;10421;49.142;9.232;2022-12-10T04:41:37;31.40;;;14.20;;
20525;SDS011;10421;49.142;9.232;2022-12-10T04:44:05;26.67;;;13.30;;
20525;SDS011;10421;49.142;9.232;2022-12-10T04:46:31;29.87;;;14.77;;
20525;SDS011;10421;49.142;9.232;2022-12-10T04:48:58;27.50;;;12.70;;
20525;SDS011;10421;49.142;9.232;2022-12-10T04:51:25;27.07;;;12.43;;
20525;SDS011;10421;49.142;9.232;2022-12-10T04:53:52;27.37;;;13.07;;
20525;SDS011;10421;49.142;9.232;2022-12-10T04:56:20;26.17;;;12.00;;
20525;SDS011;10421;49.142;9.232;2022-12-10T04:58:47;26.83;;;14.03;;
20525;SDS011;10421;49.142;9.232;2022-12-10T05:01:14;23.23;;;12.80;;
20525;SDS011;10421;49.142;9.232;2022-12-10T05:03:43;30.57;;;14.70;;
20525;SDS011;10421;49.142;9.232;2022-12-10T05:06:10;30.67;;;14.43;;
20525;SDS011;10421;49.142;9.232;2022-12-10T05:08:38;27.10;;;14.03;;
20525;SDS011;10421;49.142;9.232;2022-12-10T05:11:06;24.60;;;12.80;;
20525;SDS011;10421;49.142;9.232;2022-12-10T05:13:36;26.93;;;13.73;;
20525;SDS011;10421;49.142;9.232;2022-12-10T05:16:04;26.23;;;13.20;;
20525;SDS011;10421;49.142;9.232;2022-12-10T05:18:33;28.40;;;14.40;;
20525;SDS011;10421;49.142;9.232;2022-12-10T05:21:00;22.80;;;12.50;;
20525;SDS011;10421;49.142;9.232;2022-12-10T05:23:27;24.87;;;12.57;;
20525;SDS011;10421;49.142;9.232;2022-12-10T05:25:57;24.80;;;13.10;;
20525;SDS011;10421;49.142;9.232;2022-12-10T05:28:25;27.13;;;14.23;;
20525;SDS011;10421;49.142;9.232;2022-12-10T05:30:53;28.70;;;13.30;;
20525;SDS011;10421;49.142;9.232;2022-12-10T05:33:20;30.60;;;13.70;;
20525;SDS011;10421;49.142;9.232;2022-12-10T05:35:51;24.27;;;12.07;;
20525;SDS011;10421;49.142;9.232;2022-12-10T05:38:21;27.07;;;13.10;;
20525;SDS011;10421;49.142;9.232;2022-12-10T05:40:48;28.10;;;13.50;;
20525;SDS011;10421;49.142;9.232;2022-12-10T05:43:15;29.37;;;13.70;;
20525;SDS011;10421;49.142;9.232;2022-12-10T05:45:43;27.73;;;14.00;;
20525;SDS011;10421;49.142;9.232;2022-12-10T05:48:12;27.23;;;13.10;;
20525;SDS011;10421;49.142;9.232;2022-12-10T05:50:40;25.20;;;12.00;;
20525;SDS011;10421;49.142;9.232;2022-12-10T05:53:07;28.87;;;13.10;;
20525;SDS011;10421;49.142;9.232;2022-12-10T05:55:34;28.50;;;13.70;;
20525;SDS011;10421;49.142;9.232;2022-12-10T05:58:01;25.20;;;13.43;;
20525;SDS011;10421;49.142;9.232;2022-12-10T06:00:28;30.40;;;13.50;;
20525;SDS011;10421;49.142;9.232;2022-12-10T06:02:54;27.47;;;14.10;;
20525;SDS011;10421;49.142;9.232;2022-12-10T06:05:23;30.17;;;14.40;;
20525;SDS011;10421;49.142;9.232;2022-12-10T06:07:49;25.03;;;12.93;;
20525;SDS011;10421;49.142;9.232;2022-12-10T06:10:16;29.10;;;13.03;;
20525;SDS011;10421;49.142;9.232;2022-12-10T06:12:43;28.30;;;13.57;;
20525;SDS011;10421;49.142;9.232;2022-12-10T06:15:10;28.87;;;13.50;;
20525;SDS011;10421;49.142;9.232;2022-12-10T06:17:36;27.90;;;13.57;;
20525;SDS011;10421;49.142;9.232;2022-12-10T06:20:04;25.23;;;13.33;;
20525;SDS011;10421;49.142;9.232;2022-12-10T06:22:32;30.07;;;14.10;;
20525;SDS011;10421;49.142;9.232;2022-12-10T06:25:00;26.27;;;13.43;;
20525;SDS011;10421;49.142;9.232;2022-12-10T06:27:28;29.67;;;13.53;;
20525;SDS011;10421;49.142;9.232;2022-12-10T06:29:56;28.07;;;13.87;;
20525;SDS011;10421;49.142;9.232;2022-12-10T06:32:22;25.40;;;13.60;;
20525;SDS011;10421;49.142;9.232;2022-12-10T06:34:49;32.90;;;14.80;;
20525;SDS011;10421;49.142;9.232;2022-12-10T06:37:16;25.20;;;13.70;;
20525;SDS011;10421;49.142;9.232;2022-12-10T06:39:44;37.00;;;14.37;;
20525;SDS011;10421;49.142;9.232;2022-12-10T06:42:11;28.40;;;13.97;;
20525;SDS011;10421;49.142;9.232;2022-12-10T06:44:38;30.20;;;14.47;;
20525;SDS011;10421;49.142;9.232;2022-12-10T06:47:04;24.80;;;13.33;;
20525;SDS011;10421;49.142;9.232;2022-12-10T06:49:31;22.27;;;13.00;;
20525;SDS011;10421;49.142;9.232;2022-12-10T06:51:58;24.17;;;12.17;;
20525;SDS011;10421;49.142;9.232;2022-12-10T06:54:25;29.20;;;14.03;;
20525;SDS011;10421;49.142;9.232;2022-12-10T06:56:53;23.87;;;12.93;;
20525;SDS011;10421;49.142;9.232;2022-12-10T06:59:19;28.27;;;14.27;;
20525;SDS011;10421;49.142;9.232;2022-12-10T07:01:46;30.27;;;15.20;;
20525;SDS011;10421;49.142;9.232;2022-12-10T07:04:13;29.53;;;14.30;;
20525;SDS011;10421;49.142;9.232;2022-12-10T07:06:40;29.30;;;13.93;;
20525;SDS011;10421;49.142;9.232;2022-12-10T07:09:07;35.97;;;15.73;;
20525;SDS011;10421;49.142;9.232;2022-12-10T07:11:34;28.80;;;14.57;;
20525;SDS011;10421;49.142;9.232;2022-12-10T07:14:03;30.07;;;13.67;;
20525;SDS011;10421;49.142;9.232;2022-12-10T07:16:30;30.40;;;14.40;;
20525;SDS011;10421;49.142;9.232;2022-12-10T07:18:58;32.10;;;15.37;;
20525;SDS011;10421;49.142;9.232;2022-12-10T07:21:28;28.90;;;13.90;;
20525;SDS011;10421;49.142;9.232;2022-12-10T07:23:57;29.30;;;15.20;;
20525;SDS011;10421;49.142;9.232;2022-12-10T07:26:27;28.43;;;13.43;;
20525;SDS011;10421;49.142;9.232;2022-12-10T07:28:55;29.57;;;13.30;;
20525;SDS011;10421;49.142;9.232;2022-12-10T07:31:23;48.80;;;23.17;;
20525;SDS011;10421;49.142;9.232;2022-12-10T07:33:50;48.30;;;19.23;;
20525;SDS011;10421;49.142;9.232;2022-12-10T07:36:18;42.90;;;21.70;;
20525;SDS011;10421;49.142;9.232;2022-12-10T07:38:47;60.17;;;29.97;;
20525;SDS011;10421;49.142;9.232;2022-12-10T07:41:15;41.00;;;18.40;;
20525;SDS011;10421;49.142;9.232;2022-12-10T07:43:44;59.10;;;28.03;;
20525;SDS011;10421;49.142;9.232;2022-12-10T07:46:12;37.37;;;17.50;;
20525;SDS011;10421;49.142;9.232;2022-12-10T07:48:42;33.47;;;15.47;;
20525;SDS011;10421;49.142;9.232;2022-12-10T07:51:10;26.80;;;13.70;;
20525;SDS011;10421;49.142;9.232;2022-12-10T07:53:38;30.30;;;14.37;;
20525;SDS011;10421;49.142;9.232;2022-12-10T07:56:05;26.37;;;13.27;;
20525;SDS011;10421;49.142;9.232;2022-12-10T07:58:32;28.00;;;13.90;;
20525;SDS011;10421;49.142;9.232;2022-12-10T08:01:05;26.87;;;13.40;;
20525;SDS011;10421;49.142;9.232;2022-12-10T08:03:32;27.77;;;13.73;;
20525;SDS011;10421;49.142;9.232;2022-12-10T08:06:01;29.60;;;14.37;;
20525;SDS011;10421;49.142;9.232;2022-12-10T08:08:29;26.30;;;13.83;;
20525;SDS011;10421;49.142;9.232;2022-12-10T08:10:58;27.80;;;13.60;;
20525;SDS011;10421;49.142;9.232;2022-12-10T08:13:25;27.87;;;13.70;;
20525;SDS011;10421;49.142;9.232;2022-12-10T08:15:52;29.80;;;15.13;;
20525;SDS011;10421;49.142;9.232;2022-12-10T08:18:19;29.47;;;14.50;;
20525;SDS011;10421;49.142;9.232;2022-12-10T08:20:47;31.43;;;14.17;;
20525;SDS011;10421;49.142;9.232;2022-12-10T08:23:26;37.13;;;18.47;;
20525;SDS011;10421;49.142;9.232;2022-12-10T08:25:54;120.60;;;54.37;;
20525;SDS011;10421;49.142;9.232;2022-12-10T08:28:21;67.17;;;30.27;;
20525;SDS011;10421;49.142;9.232;2022-12-10T08:30:48;62.20;;;28.50;;
20525;SDS011;10421;49.142;9.232;2022-12-10T08:33:15;47.10;;;21.80;;
20525;SDS011;10421;49.142;9.232;2022-12-10T08:35:42;59.27;;;28.83;;
20525;SDS011;10421;49.142;9.232;2022-12-10T08:38:08;63.30;;;29.20;;
20525;SDS011;10421;49.142;9.232;2022-12-10T08:40:39;30.10;;;15.17;;
20525;SDS011;10421;49.142;9.232;2022-12-10T08:43:07;25.13;;;13.23;;
20525;SDS011;10421;49.142;9.232;2022-12-10T08:45:34;28.83;;;13.97;;
20525;SDS011;10421;49.142;9.232;2022-12-10T08:48:01;25.27;;;14.10;;
20525;SDS011;10421;49.142;9.232;2022-12-10T08:50:28;22.40;;;12.63;;
20525;SDS011;10421;49.142;9.232;2022-12-10T08:52:55;27.80;;;14.10;;
20525;SDS011;10421;49.142;9.232;2022-12-10T08:55:22;25.07;;;12.53;;
20525;SDS011;10421;49.142;9.232;2022-12-10T08:57:50;29.30;;;13.90;;
20525;SDS011;10421;49.142;9.232;2022-12-10T09:00:17;29.87;;;14.40;;
20525;SDS011;10421;49.142;9.232;2022-12-10T09:02:47;25.37;;;14.07;;
20525;SDS011;10421;49.142;9.232;2022-12-10T09:05:14;26.80;;;13.53;;
20525;SDS011;10421;49.142;9.232;2022-12-10T09:07:41;29.33;;;15.20;;
20525;SDS011;10421;49.142;9.232;2022-12-10T09:10:08;23.47;;;12.90;;
20525;SDS011;10421;49.142;9.232;2022-12-10T09:12:36;25.57;;;12.40;;
20525;SDS011;10421;49.142;9.232;2022-12-10T09:15:05;28.40;;;14.33;;
20525;SDS011;10421;49.142;9.232;2022-12-10T09:17:34;25.97;;;12.93;;
20525;SDS011;10421;49.142;9.232;2022-12-10T09:20:01;29.23;;;14.23;;
20525;SDS011;10421;49.142;9.232;2022-12-10T09:22:29;25.57;;;13.20;;
20525;SDS011;10421;49.142;9.232;2022-12-10T09:24:55;28.20;;;13.60;;
20525;SDS011;10421;49.142;9.232;2022-12-10T09:27:22;25.40;;;14.50;;
20525;SDS011;10421;49.142;9.232;2022-12-10T09:29:49;29.13;;;14.47;;
20525;SDS011;10421;49.142;9.232;2022-12-10T09:32:17;27.27;;;13.20;;
20525;SDS011;10421;49.142;9.232;2022-12-10T09:34:44;32.30;;;14.67;;
20525;SDS011;10421;49.142;9.232;2022-12-10T09:37:11;30.67;;;14.27;;
20525;SDS011;10421;49.142;9.232;2022-12-10T09:39:37;23.27;;;14.00;;
20525;SDS011;10421;49.142;9.232;2022-12-10T09:42:08;24.87;;;13.30;;
20525;SDS011;10421;49.142;9.232;2022-12-10T09:44:47;26.60;;;12.87;;
20525;SDS011;10421;49.142;9.232;2022-12-10T09:47:22;24.60;;;13.70;;
20525;SDS011;10421;49.142;9.232;2022-12-10T09:49:55;27.67;;;14.70;;
20525;SDS011;10421;49.142;9.232;2022-12-10T09:52:29;26.30;;;13.20;;
20525;SDS011;10421;49.142;9.232;2022-12-10T09:55:02;26.83;;;14.87;;
20525;SDS011;10421;49.142;9.232;2022-12-10T09:57:32;25.50;;;12.73;;
20525;SDS011;10421;49.142;9.232;2022-12-10T10:00:03;20.87;;;10.00;;
20525;SDS011;10421;49.142;9.232;2022-12-10T10:02:37;21.10;;;11.57;;
20525;SDS011;10421;49.142;9.232;2022-12-10T10:05:09;23.97;;;12.30;;
20525;SDS011;10421;49.142;9.232;2022-12-10T10:07:39;19.67;;;10.70;;
20525;SDS011;10421;49.142;9.232;2022-12-10T10:10:12;22.37;;;11.90;;
20525;SDS011;10421;49.142;9.232;2022-12-10T10:12:47;21.60;;;12.00;;
20525;SDS011;10421;49.142;9.232;2022-12-10T10:15:18;54.73;;;24.83;;
20525;SDS011;10421;49.142;9.232;2022-12-10T10:17:49;28.27;;;15.03;;
20525;SDS011;10421;49.142;9.232;2022-12-10T10:20:19;29.67;;;14.50;;
20525;SDS011;10421;49.142;9.232;2022-12-10T10:22:46;22.77;;;12.10;;
20525;SDS011;10421;49.142;9.232;2022-12-10T10:25:13;21.17;;;11.20;;
20525;SDS011;10421;49.142;9.232;2022-12-10T10:27:43;19.37;;;10.87;;
20525;SDS011;10421;49.142;9.232;2022-12-10T10:30:13;21.40;;;11.43;;
20525;SDS011;10421;49.142;9.232;2022-12-10T10:32:47;21.37;;;10.80;;
20525;SDS011;10421;49.142;9.232;2022-12-10T10:35:28;24.30;;;12.17;;
20525;SDS011;10421;49.142;9.232;2022-12-10T10:37:58;24.57;;;12.37;;
20525;SDS011;10421;49.142;9.232;2022-12-10T10:40:27;37.63;;;12.60;;
20525;SDS011;10421;49.142;9.232;2022-12-10T10:42:58;26.07;;;11.83;;
20525;SDS011;10421;49.142;9.232;2022-12-10T10:45:34;23.33;;;12.73;;
20525;SDS011;10421;49.142;9.232;2022-12-10T10:48:05;22.03;;;11.40;;
20525;SDS011;10421;49.142;9.232;2022-12-10T10:50:38;21.60;;;11.47;;
20525;SDS011;10421;49.142;9.232;2022-12-10T10:53:23;22.50;;;12.53;;
20525;SDS011;10421;49.142;9.232;2022-12-10T10:55:53;23.70;;;11.73;;
20525;SDS011;10421;49.142;9.232;2022-12-10T10:58:22;25.07;;;11.63;;
20525;SDS011;10421;49.142;9.232;2022-12-10T11:00:54;22.70;;;12.20;;
20525;SDS011;10421;49.142;9.232;2022-12-10T11:03:22;24.00;;;12.50;;
20525;SDS011;10421;49.142;9.232;2022-12-10T11:05:51;21.73;;;11.60;;
20525;SDS011;10421;49.142;9.232;2022-12-10T11:08:18;24.40;;;12.97;;
20525;SDS011;10421;49.142;9.232;2022-12-10T11:10:47;27.33;;;14.10;;
20525;SDS011;10421;49.142;9.232;2022-12-10T11:13:18;32.93;;;16.10;;
20525;SDS011;10421;49.142;9.232;2022-12-10T11:15:53;38.23;;;17.50;;
20525;SDS011;10421;49.142;9.232;2022-12-10T11:18:26;27.07;;;13.50;;
20525;SDS011;10421;49.142;9.232;2022-12-10T11:20:59;29.77;;;14.60;;
20525;SDS011;10421;49.142;9.232;2022-12-10T11:23:28;30.60;;;14.53;;
20525;SDS011;10421;49.142;9.232;2022-12-10T11:25:58;32.40;;;14.23;;
20525;SDS011;10421;49.142;9.232;2022-12-10T11:28:39;28.10;;;12.57;;
20525;SDS011;10421;49.142;9.232;2022-12-10T11:31:14;25.80;;;13.37;;
20525;SDS011;10421;49.142;9.232;2022-12-10T11:33:55;25.20;;;12.83;;
20525;SDS011;10421;49.142;9.232;2022-12-10T11:36:33;28.57;;;13.50;;
20525;SDS011;10421;49.142;9.232;2022-12-10T11:39:10;22.80;;;11.53;;
20525;SDS011;10421;49.142;9.232;2022-12-10T11:41:49;24.37;;;13.17;;
20525;SDS011;10421;49.142;9.232;2022-12-10T11:44:24;22.00;;;11.57;;
20525;SDS011;10421;49.142;9.232;2022-12-10T11:50:12;21.60;;;10.97;;
20525;SDS011;10421;49.142;9.232;2022-12-10T11:52:51;24.77;;;11.83;;
20525;SDS011;10421;49.142;9.232;2022-12-10T11:55:30;20.60;;;10.90;;
20525;SDS011;10421;49.142;9.232;2022-12-10T11:58:10;20.23;;;11.40;;
20525;SDS011;10421;49.142;9.232;2022-12-10T12:00:49;24.60;;;11.83;;
20525;SDS011;10421;49.142;9.232;2022-12-10T12:03:36;21.93;;;12.13;;
20525;SDS011;10421;49.142;9.232;2022-12-10T12:06:31;18.30;;;10.50;;
20525;SDS011;10421;49.142;9.232;2022-12-10T12:09:18;21.63;;;11.33;;
20525;SDS011;10421;49.142;9.232;2022-12-10T12:11:56;23.20;;;11.57;;
20525;SDS011;10421;49.142;9.232;2022-12-10T12:14:36;39.93;;;20.13;;
20525;SDS011;10421;49.142;9.232;2022-12-10T12:17:09;26.77;;;14.00;;
20525;SDS011;10421;49.142;9.232;2022-12-10T12:19:38;19.93;;;10.53;;
20525;SDS011;10421;49.142;9.232;2022-12-10T12:22:12;23.37;;;12.70;;
20525;SDS011;10421;49.142;9.232;2022-12-10T12:24:43;23.93;;;13.30;;
20525;SDS011;10421;49.142;9.232;2022-12-10T12:27:14;27.20;;;13.27;;
20525;SDS011;10421;49.142;9.232;2022-12-10T12:29:50;22.60;;;11.53;;
20525;SDS011;10421;49.142;9.232;2022-12-10T12:32:24;23.27;;;12.20;;
20525;SDS011;10421;49.142;9.232;2022-12-10T12:34:56;20.40;;;11.17;;
20525;SDS011;10421;49.142;9.232;2022-12-10T12:37:28;21.43;;;11.47;;
20525;SDS011;10421;49.142;9.232;2022-12-10T12:40:05;21.40;;;10.90;;
20525;SDS011;10421;49.142;9.232;2022-12-10T12:42:40;19.00;;;11.13;;
20525;SDS011;10421;49.142;9.232;2022-12-10T12:45:13;21.57;;;10.57;;
20525;SDS011;10421;49.142;9.232;2022-12-10T12:47:45;19.20;;;9.70;;
20525;SDS011;10421;49.142;9.232;2022-12-10T12:50:20;22.97;;;10.90;;
20525;SDS011;10421;49.142;9.232;2022-12-10T12:52:51;21.27;;;10.83;;
20525;SDS011;10421;49.142;9.232;2022-12-10T12:55:22;22.97;;;10.90;;
20525;SDS011;10421;49.142;9.232;2022-12-10T12:57:56;21.80;;;10.93;;
20525;SDS011;10421;49.142;9.232;2022-12-10T13:00:38;18.90;;;10.07;;
20525;SDS011;10421;49.142;9.232;2022-12-10T13:03:17;19.40;;;9.90;;
20525;SDS011;10421;49.142;9.232;2022-12-10T13:05:53;21.23;;;9.73;;
20525;SDS011;10421;49.142;9.232;2022-12-10T13:11:24;21.63;;;9.70;;
20525;SDS011;10421;49.142;9.232;2022-12-10T13:14:03;22.87;;;11.67;;
20525;SDS011;10421;49.142;9.232;2022-12-10T13:16:49;23.90;;;10.57;;
20525;SDS011;10421;49.142;9.232;2022-12-10T13:19:30;21.93;;;11.27;;
20525;SDS011;10421;49.142;9.232;2022-12-10T13:21:59;24.00;;;11.67;;
20525;SDS011;10421;49.142;9.232;2022-12-10T13:27:37;18.93;;;9.53;;
20525;SDS011;10421;49.142;9.232;2022-12-10T13:30:25;18.23;;;8.63;;
20525;SDS011;10421;49.142;9.232;2022-12-10T13:33:05;18.93;;;8.70;;
20525;SDS011;10421;49.142;9.232;2022-12-10T13:35:49;21.77;;;10.57;;
20525;SDS011;10421;49.142;9.232;2022-12-10T13:38:22;17.50;;;9.23;;
20525;SDS011;10421;49.142;9.232;2022-12-10T13:40:58;16.67;;;8.77;;
20525;SDS011;10421;49.142;9.232;2022-12-10T13:43:52;14.83;;;8.60;;
20525;SDS011;10421;49.142;9.232;2022-12-10T13:46:50;16.43;;;8.83;;
20525;SDS011;10421;49.142;9.232;2022-12-10T13:49:23;18.30;;;9.07;;
20525;SDS011;10421;49.142;9.232;2022-12-10T13:51:58;21.10;;;10.73;;
20525;SDS011;10421;49.142;9.232;2022-12-10T13:54:34;19.60;;;9.30;;
20525;SDS011;10421;49.142;9.232;2022-12-10T13:57:22;18.87;;;9.97;;
20525;SDS011;10421;49.142;9.232;2022-12-10T14:00:13;18.30;;;9.17;;
20525;SDS011;10421;49.142;9.232;2022-12-10T14:02:50;17.20;;;9.30;;
20525;SDS011;10421;49.142;9.232;2022-12-10T14:05:42;19.57;;;10.03;;
20525;SDS011;10421;49.142;9.232;2022-12-10T14:08:20;48.67;;;22.00;;
20525;SDS011;10421;49.142;9.232;2022-12-10T14:10:50;36.27;;;16.40;;
20525;SDS011;10421;49.142;9.232;2022-12-10T14:13:18;21.27;;;10.80;;
20525;SDS011;10421;49.142;9.232;2022-12-10T14:15:50;29.67;;;14.33;;
20525;SDS011;10421;49.142;9.232;2022-12-10T14:18:19;25.50;;;12.43;;
20525;SDS011;10421;49.142;9.232;2022-12-10T14:20:50;20.00;;;9.27;;
20525;SDS011;10421;49.142;9.232;2022-12-10T14:23:21;17.47;;;8.33;;
20525;SDS011;10421;49.142;9.232;2022-12-10T14:25:59;17.73;;;9.50;;
20525;SDS011;10421;49.142;9.232;2022-12-10T14:28:30;16.10;;;8.77;;
20525;SDS011;10421;49.142;9.232;2022-12-10T14:30:59;14.73;;;7.10;;
20525;SDS011;10421;49.142;9.232;2022-12-10T14:33:26;13.60;;;7.10;;
20525;SDS011;10421;49.142;9.232;2022-12-10T14:35:53;17.80;;;7.70;;
20525;SDS011;10421;49.142;9.232;2022-12-10T14:38:21;14.40;;;6.80;;
20525;SDS011;10421;49.142;9.232;2022-12-10T14:40:55;14.90;;;7.63;;
20525;SDS011;10421;49.142;9.232;2022-12-10T14:43:22;13.07;;;7.07;;
20525;SDS011;10421;49.142;9.232;2022-12-10T14:45:56;14.07;;;7.20;;
20525;SDS011;10421;49.142;9.232;2022-12-10T14:48:26;13.50;;;7.27;;
20525;SDS011;10421;49.142;9.232;2022-12-10T14:50:53;14.93;;;8.30;;
20525;SDS011;10421;49.142;9.232;2022-12-10T14:53:23;15.33;;;7.60;;